Informes METAR

LERS - Reus (civ/Mil), Spain
Distancia desde la estación: O 7km
Actualizado: 20/04/2018 06:30
Despejado
Despejado
 Viento del NE
Viento: NE 7 km/h
Temperatura: 10°C
Wind Chill: 9°C
Rocío: 9°C
Humedad: 94%
Barómetro: 1023 hPa
Nubes: Despejado
Visibilidad: 10 km
2018/04/20 04:30 LERS 200430Z AUTO 04004KT 9999 NCD 10/09 Q1023
LEBL - Barcelona Airpor, Spain
Distancia desde la estación: ENE 70km
Actualizado: 20/04/2018 07:00
Despejado
Despejado
 Viento del NNO
Viento: NNO 13 km/h
Temperatura: 12°C
Rocío: 9°C
Humedad: 82%
Barómetro: 1023 hPa
Resumen: Despejado
Visibilidad: greater than 10 km
2018/04/20 05:00 LEBL 200500Z 33007KT CAVOK 12/09 Q1023 NOSIG
 
LELL - Sabadell, Spain
Distancia desde la estación: ENE 83km
Actualizado: 20/04/2018 07:00
Despejado
Despejado
 Viento del ONO
Viento: ONO 7 km/h
Temperatura: 10°C
Wind Chill: 9°C
Rocío: 8°C
Humedad: 88%
Barómetro: 1023 hPa
Nubes: Despejado
Visibilidad: 10 km
2018/04/20 05:00 LELL 200500Z AUTO 29004KT 9999 NCD 10/08 Q1023
LEDA - Lleida/Alguaire, Spain
Distancia desde la estación: NO 90km
Actualizado: 15/04/2018 18:00
NO METAR ACTUAL
Poco nuboso
Poco nuboso
 Viento del OSO
Viento: OSO 20 km/h
Temperatura: 19°C
Rocío: 10°C
Humedad: 56%
Barómetro: 1012 hPa
Nubes: Poco nuboso
Visibilidad: 10 km
Detalles de la nube: Poco nuboso 1372 m
2018/04/15 16:00 LEDA 151600Z 25011KT 9999 FEW045 19/10 Q1012
 
LESU - Pirineus/La Seu, Spain
Distancia desde la estación: N 134km
Actualizado: 19/04/2018 18:30
NO METAR ACTUAL
Parcialmente nuboso
Parcialmente nuboso
 Viento del S
Viento: S 15 km/h
Temperatura: 19°C
Rocío: 9°C
Humedad: 52%
Barómetro: 1024 hPa
Nubes: Parcialmente nuboso
Visibilidad: 10 km
Detalles de la nube: Parcialmente nuboso 1981 m
2018/04/19 16:30 LESU 191630Z 19008KT 160V220 9999 SCT065 19/09 Q1024
LEGE - Gerona/Costa Bra, Spain
Distancia desde la estación: NE 152km
Actualizado: 20/04/2018 07:00
Poco nuboso
Poco nuboso
 Viento del varia
Viento: varia 4 km/h
Temperatura: 8°C
Rocío: 8°C
Humedad: 100%
Barómetro: 1023 hPa
Nubes: Poco nuboso
Visibilidad: 9 km
Detalles de la nube: Poco nuboso 1067 m
2018/04/20 05:00 LEGE 200500Z VRB02KT 9000 FEW035 08/08 Q1023
 
LEHC - Huesca-Pirineos, Spain
Distancia desde la estación: NO 168km
Actualizado: 20/04/2018 07:00
Despejado
Despejado
 Viento del calm
Viento: Calma
Temperatura: 9°C
Rocío: 7°C
Humedad: 87%
Barómetro: 1023 hPa
Nubes: Despejado
Visibilidad: 10 km
2018/04/20 05:00 LEHC 200500Z AUTO 00000KT 9999 NCD 09/07 Q1023
LEZG - Zaragoza (mil/Ci, Spain
Distancia desde la estación: ONO 198km
Actualizado: 20/04/2018 07:00
Poco nuboso
Poco nuboso
 Viento del varia
Viento: varia 4 km/h
Temperatura: 11°C
Rocío: 9°C
Humedad: 88%
Barómetro: 1023 hPa
Nubes: Poco nuboso
Visibilidad: 10 km
Detalles de la nube: Poco nuboso 2134 m
2018/04/20 05:00 LEZG 200500Z VRB02KT 9999 FEW070 11/09 Q1023
 
LECH - Calamocha, Spain
Distancia desde la estación: O 216km
Actualizado: 20/04/2018 07:00
Despejado
Despejado
 Viento del calm
Viento: Calma
Temperatura: 10°C
Rocío: 8°C
Humedad: 88%
Barómetro: 1023 hPa
Nubes: Despejado
Visibilidad: 9 km
2018/04/20 05:00 LECH 200500Z AUTO 00000KT 9000 NCD 10/08 Q1023
LEPA - Palma De Mallorc, Spain
Distancia desde la estación: SE 217km
Actualizado: 20/04/2018 07:00
Despejado
Despejado
 Viento del SSE
Viento: SSE 7 km/h
Temperatura: 12°C
Rocío: 12°C
Humedad: 100%
Barómetro: 1022 hPa
Resumen: Despejado
Visibilidad: greater than 10 km
2018/04/20 05:00 LEPA 200500Z 15004KT CAVOK 12/12 Q1022 NOSIG
 
LFMP - Perpignan/Rivesa, France
Distancia desde la estación: NE 222km
Actualizado: 20/04/2018 07:00
Despejado
Despejado
 Viento del O
Viento: O 6 km/h
Temperatura: 10°C
Rocío: 8°C
Humedad: 88%
Barómetro: 1023 hPa
Resumen: Despejado
Visibilidad: greater than 10 km
2018/04/20 05:00 LFMP 200500Z AUTO 27003KT CAVOK 10/08 Q1023 TEMPO BKN004
LEVC - Valencia (civ/Mi, Spain
Distancia desde la estación: SO 232km
Actualizado: 20/04/2018 07:00
Muy nuboso
Muy nuboso
 Viento del NE
Viento: NE 7 km/h
Temperatura: 15°C
Rocío: 13°C
Humedad: 88%
Barómetro: 1022 hPa
Nubes: Muy nuboso
Visibilidad: 10 km
Detalles de la nube: Parcialmente nuboso 213 m
Muy nuboso 1219 m
2018/04/20 05:00 LEVC 200500Z 04004KT 010V070 9999 SCT007 BKN040 15/13 Q1022 NOSIG
 
LFMK - Carcassonne/Salv, France
Distancia desde la estación: NNE 248km
Actualizado: 20/04/2018 07:00
Despejado
Despejado
 Viento del ESE
Viento: ESE 9 km/h
Temperatura: 13°C
Rocío: 8°C
Humedad: 72%
Barómetro: 1022 hPa
Resumen: Despejado
Visibilidad: greater than 10 km
2018/04/20 05:00 LFMK 200500Z AUTO 11005KT 070V160 CAVOK 13/08 Q1022 NOSIG
LFBT - Tarbes/Ossun, France
Distancia desde la estación: NNO 249km
Actualizado: 20/04/2018 07:00
Despejado
Despejado
 Viento del S
Viento: S 11 km/h
Temperatura: 11°C
Rocío: 8°C
Humedad: 82%
Barómetro: 1022 hPa
Resumen: Despejado
Visibilidad: greater than 10 km
2018/04/20 05:00 LFBT 200500Z AUTO 18006KT CAVOK 11/08 Q1022 NOSIG
 
LEIB - Ibiza/Es Codola, Spain
Distancia desde la estación: S 252km
Actualizado: 20/04/2018 07:00
Parcialmente nuboso
Parcialmente nuboso
 Viento del NNO
Viento: NNO 7 km/h
Temperatura: 12°C
Rocío: 10°C
Humedad: 88%
Barómetro: 1021 hPa
Nubes: Parcialmente nuboso
Visibilidad: 9 km
Detalles de la nube: Parcialmente nuboso 427 m
Parcialmente nuboso 975 m
2018/04/20 05:00 LEIB 200500Z 34004KT 9000 SCT014 SCT032 12/10 Q1021 NOSIG
LFBO - Toulouse/Blagnac, France
Distancia desde la estación: N 277km
Actualizado: 20/04/2018 07:00
Despejado
Despejado
 Viento del ESE
Viento: ESE 9 km/h
Temperatura: 14°C
Rocío: 5°C
Humedad: 55%
Barómetro: 1022 hPa
Resumen: Despejado
Visibilidad: greater than 10 km
2018/04/20 05:00 LFBO 200500Z AUTO 12005KT CAVOK 14/05 Q1022 NOSIG
 
LFCK - Castres-Mazamet, France
Distancia desde la estación: NNE 282km
Actualizado: 20/04/2018 07:00
Despejado
Despejado
 Viento del ESE
Viento: ESE 22 km/h
Temperatura: 17°C
Rocío: 3°C
Humedad: 39%
Barómetro: 1023 hPa
Resumen: Despejado
Visibilidad: greater than 10 km
2018/04/20 05:00 LFCK 200500Z AUTO 11012KT CAVOK 17/03 Q1023
LFBP - Pont-Long-Uzein/, France
Distancia desde la estación: NNO 284km
Actualizado: 20/04/2018 07:00
Despejado
Despejado
 Viento del ESE
Viento: ESE 9 km/h
Temperatura: 12°C
Rocío: 10°C
Humedad: 88%
Barómetro: 1021 hPa
Resumen: Despejado
Visibilidad: greater than 10 km
2018/04/20 05:00 LFBP 200500Z AUTO 11005KT CAVOK 12/10 Q1021 NOSIG
 
LEMH - Mahon/Menorca Is, Spain
Distancia desde la estación: ESE 288km
Actualizado: 20/04/2018 07:00
Poco nuboso
Poco nuboso
 Viento del NE
Viento: NE 11 km/h
Temperatura: 14°C
Rocío: 12°C
Humedad: 88%
Barómetro: 1022 hPa
Nubes: Poco nuboso
Visibilidad: 10 km
Detalles de la nube: Poco nuboso 457 m
2018/04/20 05:00 LEMH 200500Z 05006KT 9999 FEW015 14/12 Q1022
LFMU - Beziers/Vias, France
Distancia desde la estación: NE 299km
Actualizado: 20/04/2018 07:00
Despejado
Despejado
 Viento del varia
Viento: varia 4 km/h
Temperatura: 10°C
Rocío: 7°C
Humedad: 82%
Barómetro: 1023 hPa
Resumen: Despejado
Visibilidad: greater than 10 km
2018/04/20 05:00 LFMU 200500Z AUTO VRB02KT CAVOK 10/07 Q1023 NOSIG

 ♦     ♦     ♦     Nunca base decisiones importantes en estos datos u otros obtenidos de Internet     ♦     ♦     ♦